Timeline UpdatesTrip UpdatesNews PostsPvt PostsTravel TipsAdmin PostsConv PostsFollowed PostsChat RequestsBlog PostsPNR Posts

Disclaimer
Search
 
 
Tue Jul 29, 2014 02:02:47 ISTHomeTrainsΣChainsAtlasPNRForumGalleryNewsFAQTripsMembersLoginFeedback
No Recent News for this Train
Other Trains in the News **new
Latest...
..
Sat Jul 12, 2014 (08:05AM)
⇐ Return Journey: Train# 13133

13134/Varanasi - Sealdah (Upper India) Express

Feb 08 2014 (8:51AM)
Change Departure Station:
Change Arrival Station:
Post a Train Travel TipPost a Train Travel Tip **new
Post a Comment/Question/Picture/VideoPost a Comment/Question/Picture/Video
Pantry/Catering
✕ NO Pantry Car
✕ NO Catering
RSA - Rake Sharing
13119/13120 Sealdah - Old Delhi Express
Rake/Coach Composition
LOCO-SLR-GS-GS-S4-S3-S2-S1-B1-GS-GS-GS-GS-GS-GS-SLR
Loco
BWN WDM-3A
News    PNR    Forum    Time-Table    Availability    Fare Chart    Map    Arr/Dep History    Trips    Gallery    ΣChains    X/O    Timeline    
Travel Time: 8h 2m    28 halts    Distance: 252 km    Avg Speed: 31 km/hr
Type: Mail/Express
Zone: ER/Eastern
Departs @ 08:40 (Avg 2m late)
Platform# 4
 MT TFS
Varanasi Junction/BSB 
Arrives @ 16:42 (Avg 1h 5m late)
Platform# ???
 MT TFS
Hardas Bigha/HDE 

28 halts. 58 intermediate Stations between Varanasi Junction and Hardas Bigha

Show ALL intermediate Stations  Show Old Time-Table

#CodeStation NameX/OArrivesAvgDepartsAvgHaltPFDay#KmSpeedElevZoneAddress
1BSB»Varanasi Junction (9)»  -08:40+2410.01882mNRVaranasi 221002, Uttar Pradesh
2MGSMughal Sarai Junction (8)X  09:35-109:50+215m--116.44283mECRMughalsarai 232101, Uttar Pradesh
3SLDSakaldiha (2)  10:16+010:18+92m--134.68781mECRState Highway 69, Uttar Pradesh
4ZNAZamania (2)X  10:36+1510:38+182m--160.75877mECRGhazipur, Uttar Pradesh
5DLNDildarnagar Junction (2)  10:52+1810:57+195m--174.13672mECRDildarnagar, Uttar Pradesh
6BWHBhadaura (2)  11:10+1411:12+152m--182.04969mECRGhazipur, Uttar Pradesh
7GMRGahmar (2)  11:22+1411:24+172m--190.26968mECRDistt: Ghazipur, Uttar Pradesh
8CSAChausa (2)  11:32+1911:34+212m--199.44468mECRState Highway 14, Bihar
9BXRBuxar (3)X  11:49+1511:53+164m11110.310967mECRBuxar, Bihar
10DUREDumraon (3)  12:02+2112:04+222m--1126.74670mECRDumraon, Bihar
11TWGTwining GanjX12:14+2212:16+262m--1134.3-70mECRArrah Buxar Rd, Bihar
12RPRRaghunathpur (4)  12:18+3312:20+382m--1142.66669mECRRaghunathpur, Bihar
13BYNBanahi (2)X  12:28+3912:30+382m--1151.55167mECRBanahi, Bihar
14BEABihiya (3)X  12:37+3712:39+412m--1157.47767mECRBehea, Bihar
15KRSKarisath (2)X  12:48+4812:50+522m--1168.96065mECRKarisath, Bihar
16ARAAra Junction (3)  13:00+4213:05+425m--1178.87463mECRarrah( 06182-233411), Bihar
17KUAKulharia (2)  13:13+1:0013:14+1:061m--1188.74361mECRChandi Sahar Rd, Bihar
18KWRKoelwar (2)X  13:19+1:0113:21+1:012m--1192.31865mECRNational Highway 30, Bihar
19VHCHChakki Block Cabin  13:29+1:0413:31+1:052m--1194.85463mECRNational Highway 30, Bihar
20BTABihta (2)X  13:38+1:0013:40+1:032m--1201.04262mECRDistt: Patna, Bihar
21SDESadisopur (2)X  13:46+5813:48+582m--1205.36164mECRSadisopur, Bihar
22NEONeora (2)XO  13:55+1:1113:57+1:192m--1212.3761mECRNational Highway 98, Bihar
23DNRDanapur (5)XO  14:50+4215:00+5010m--1218.45158mECRKhagaul, Bihar
24PWSPhulwari Sharif (3)X  15:04+5715:06+1:022m--1221.8958mECRPatna, Bihar
25PNBEPatna Junction (10)  15:45+2915:55+3210m11227.82257mECRPatna 800001, Bihar
26RJPBRajendra Nagar Bihar (4)X  16:02+4516:04+462m--1230.45155mECRPatna 800001, Bihar
27GZHGulzarbagh (3)X  16:09+5216:11+562m--1234.62055mECRPatna, Bihar
28PNCPatna Saheb (3)  16:20+5216:22+562m--1237.75659mECRPatna, Bihar
29FUTFatwa (6)  16:35+5716:37+1:062m--1249.92853mECRPatna, Bihar
30HDE•Hardas Bigha•X  16:42+1:0516:44+1:052m--1252.27453mECRFatwah, Bihar
31KOOKhusropur (2)O  16:49+1:1016:51+1:112m--1258.32052mECRPatna, Bihar
32KWOKarauta (2)X  17:16+5617:18+1:062m--1266.63254mECRKarauta, Bihar
33BKPBakhtiyarpur Junction (5)X  17:30+1:0617:32+1:192m--1272.99151mECRPatna, Bihar
34ATLAthmal Gola (2)  17:38+1:3417:40+1:332m--1282.06952mECRPatna, Bihar
35BARHBarh (3)  17:48+1:1517:50+1:182m--1291.16249mECRBarh, Bihar
36PHKPunarakhXO  18:00+1:4018:02+1:402m--1301.51051mECRPunarakh, Bihar
37MORMorX  18:51+1:0118:53+1:012m--1309.83646mECRMor, Bihar
38MKAMokama Junction (3)  19:05+5519:10+535m--1317.06348mECRPatna, Bihar
39HTZHathidah Junction (2)X  19:18+5919:20+592m11325.44350mECRMusahari, Bihar
40BRYABarhiya (3)X  19:33+5019:35+502m--1334.87047mECRBarahiya, Bihar
41LKRLuckeesarai Junction (2)XO  19:48+1:1119:50+1:112m--1349.9152mECRLakhisarai, Bihar
42KIULKiul Junction (5)  20:45+2120:55+2210m51351.25953mECRDist. Lakhisarai, Bihar
43KJHKajra (2)  21:11+3621:13+392m--1367.04950mERLakhisarai District, Bihar
44AHAAbhaipur  21:22+4121:24+412m--1374.25552mERAbhaipur, Bihar
45DRHDharhara (2)  21:35+4221:37+432m--1384.34755mERDharhara, Bihar
46DRTPDasharathpur21:44+4321:46+452m--1389.72748mERDharhara, Bihar
47JMPJamalpur Junction (4)  22:00+3722:10+3910m--1396.14759mERJamalpur 06344-243101, Bihar
48RPURRatanpur (2)  22:18+4722:20+472m--1402.44246mERRatanpur Railway Station, Bihar
49BUPBariarpur (3)  22:27+4622:29+462m--1407.25442mERMunger, Bihar
50SGGSultanGanj (3)  22:49+4322:51+452m--1425.14642mERSultanganj, Bihar
51AKNAkbarnagar (3)  23:04+4123:06+422m--1435.24539mERTilakpur, Bihar
52MPYMurarpur (2)  23:13+1923:15+192m--1440.54238mERMau, Bihar
53NATNathnagar (2)  23:22+4023:24+412m--1445.41848mERBhagalpur, Bihar
54BGPBhagalpur Junction (6)X  23:40+2823:55+3115m21450.15749mERBhagalpur, Bihar
55SBOSabaur (3)X  00:03+4000:05+422m--2457.65042mERSabour, Bihar
56GGAGhoga (2)  00:20+4500:22+462m--2470.14942mERGhoga, Bihar
57EKCEkchari (1)  00:29+4700:31+472m12475.82037mERNational Highway 80, Bihar
58CLGKahalgaon (2)X  00:44+4300:46+442m12480.23244mERBhagalpur, Bihar
59BKSLBikram Shila (2)  01:01+3901:03+402m--2488.22358mERBikram Shila, Bihar
60SVRPShivanarayanpur (2)  01:12+3701:14+382m--2491.64847mERShivanarayanpur, Bihar
61PPTPirpainti (2)  01:25+4001:27+402m--2500.55653mERBhagalpur, Bihar
62MZCMirza Cheuki (3)  01:36+4101:38+422m32509.03638mERBihar, Bihar
63SBGSahibganj Junction (3)  02:03+3602:13+4210m12524.15638mERSahibganj, Jharkhand
64MJPMaharajpur (2)X  02:28-02:34-6m--2538.08534mERMoharajpur, Jharkhand
65TLJTaljhari  02:44+5102:46+512m--2552.23638mERTaljhari, Jharkhand
66KXEKalian ChakX  02:54-03:00-6m--2557.09745mERKalian Chak, Jharkhand
67TPHTinpahar Junction (3)  03:03+4503:05+452m22561.82945mERBamangawan, Jharkhand
68BHWBarharwa Junction (3)  03:40+2503:45+285m22578.56536mERBarharwa, Jharkhand
69KLPKotalpukur (3)X  03:58+4004:00+402m12592.66540mERKotalpukur, Jharkhand
70PKRPakur (2)  04:11+3304:13+332m22604.64237mERDist:- Pakur, Jharkhand
71RJGRajgram (3)  04:28+4304:30+432m22615.15032mERRajgram, West Bengal
72BSBRBanshlai Bridge (2)  04:38+4104:40+422m--2621.84335mERState Highway 5, West Bengal
73MRRMurarai (3)  04:47+4504:49+472m22626.85736mERMurarai, West Bengal
74CTRChatra (3)X  04:57+4704:59+472m22634.44742mERChatra, West Bengal
75NHTNalhati Junction (4)  05:10+4705:12+502m22643.02348mERNalhati, West Bengal
76RPHRampurhat (3)X  05:48+4206:03+3615m12657.16841mERDIST - Birbhum, West Bengal
77MLVMallarpur (3)  06:14+4106:16+422m--2669.54946mERDist - Birbhum, West Bengal
78SNTSainthia Junction (4)X  06:35+4306:37+432m42685.18058mERDist - Birbhum, West Bengal
79AMPAhmadpur Junction (3)  06:47+4706:49+472m22698.46546mERDist - Birbhum, West Bengal
80PNEPrantik (3)  07:03+4907:05+482m22713.63248mERPrantik, West Bengal
81BHPBolpur Shantiniketan (3)  07:13+4507:18+425m22717.87159mERBolpur, West Bengal
82GKHGuskara (2)X  07:34+4307:36+432m12736.83541mERDist - Bardhaman, West Bengal
83BWNBarddhaman Junction (8)XO  08:32+2708:56+1824m--2769.67034mERDist - Barddhaman, West Bengal
84DAKEDakhineswar (2)  10:12+310:14+32m22858.32310mERDist - 24 paraganas ( North ), West Bengal
85BNXRBidhan Nagar Road (4)  10:38+210:40+22m42867.6138mERKolkata, West Bengal
86SDAHKolkata Sealdah (20)10:55+10-92871.0-8mERPh : 033-23503535 (For North: APC Roy Road) Kolkata 700014, West Bengal
Scroll to Top
Scroll to Bottom